sensor_id;sensor_type;location;lat;lon;timestamp;pressure;altitude;pressure_sealevel;temperature;humidity
19797;BME280;10058;57.654;12.044;2023-02-20T00:00:59;100157.91;;;5.54;100.00
19797;BME280;10058;57.654;12.044;2023-02-20T00:03:24;100152.56;;;5.51;100.00
19797;BME280;10058;57.654;12.044;2023-02-20T00:08:52;100144.78;;;5.54;100.00
19797;BME280;10058;57.654;12.044;2023-02-20T00:11:17;100134.56;;;5.38;100.00
19797;BME280;10058;57.654;12.044;2023-02-20T00:13:45;100123.50;;;5.45;100.00
19797;BME280;10058;57.654;12.044;2023-02-20T00:16:10;100112.41;;;5.52;100.00
19797;BME280;10058;57.654;12.044;2023-02-20T00:18:36;100109.44;;;5.43;100.00
19797;BME280;10058;57.654;12.044;2023-02-20T00:21:01;100106.81;;;5.43;100.00
19797;BME280;10058;57.654;12.044;2023-02-20T00:23:26;100091.66;;;5.58;100.00
19797;BME280;10058;57.654;12.044;2023-02-20T00:28:54;100073.47;;;5.39;100.00
19797;BME280;10058;57.654;12.044;2023-02-20T00:31:19;100061.88;;;5.56;100.00
19797;BME280;10058;57.654;12.044;2023-02-20T00:33:44;100054.75;;;5.52;100.00
19797;BME280;10058;57.654;12.044;2023-02-20T00:36:13;100043.16;;;5.46;100.00
19797;BME280;10058;57.654;12.044;2023-02-20T00:38:40;100043.16;;;5.46;100.00
19797;BME280;10058;57.654;12.044;2023-02-20T00:41:06;100031.53;;;5.39;100.00
19797;BME280;10058;57.654;12.044;2023-02-20T00:43:31;100019.19;;;5.35;100.00
19797;BME280;10058;57.654;12.044;2023-02-20T00:49:03;99996.44;;;5.34;100.00
19797;BME280;10058;57.654;12.044;2023-02-20T00:51:28;99998.31;;;5.38;100.00
19797;BME280;10058;57.654;12.044;2023-02-20T00:53:53;100005.03;;;5.30;100.00
19797;BME280;10058;57.654;12.044;2023-02-20T00:56:19;100025.63;;;5.21;100.00
19797;BME280;10058;57.654;12.044;2023-02-20T00:58:44;100022.53;;;5.31;100.00
19797;BME280;10058;57.654;12.044;2023-02-20T01:01:09;100015.28;;;5.24;100.00
19797;BME280;10058;57.654;12.044;2023-02-20T01:03:35;100015.50;;;5.30;100.00
19797;BME280;10058;57.654;12.044;2023-02-20T01:09:03;100010.94;;;5.48;100.00
19797;BME280;10058;57.654;12.044;2023-02-20T01:11:28;100007.25;;;5.43;100.00
19797;BME280;10058;57.654;12.044;2023-02-20T01:13:53;99987.84;;;5.38;100.00
19797;BME280;10058;57.654;12.044;2023-02-20T01:16:18;99972.56;;;5.50;100.00
19797;BME280;10058;57.654;12.044;2023-02-20T01:18:43;99962.28;;;5.56;100.00
19797;BME280;10058;57.654;12.044;2023-02-20T01:21:09;99961.03;;;5.71;100.00
19797;BME280;10058;57.654;12.044;2023-02-20T01:23:34;99941.22;;;5.53;100.00
19797;BME280;10058;57.654;12.044;2023-02-20T01:29:02;99924.34;;;5.45;100.00
19797;BME280;10058;57.654;12.044;2023-02-20T01:31:27;99918.25;;;5.46;100.00
19797;BME280;10058;57.654;12.044;2023-02-20T01:33:53;99910.38;;;5.46;100.00
19797;BME280;10058;57.654;12.044;2023-02-20T01:36:18;99908.56;;;5.44;100.00
19797;BME280;10058;57.654;12.044;2023-02-20T01:38:44;99899.28;;;5.53;100.00
19797;BME280;10058;57.654;12.044;2023-02-20T01:41:10;99888.81;;;5.53;100.00
19797;BME280;10058;57.654;12.044;2023-02-20T01:43:36;99880.06;;;5.54;100.00
19797;BME280;10058;57.654;12.044;2023-02-20T01:49:11;99848.00;;;5.62;100.00
19797;BME280;10058;57.654;12.044;2023-02-20T01:51:39;99837.59;;;5.65;100.00
19797;BME280;10058;57.654;12.044;2023-02-20T01:54:06;99828.91;;;5.66;100.00
19797;BME280;10058;57.654;12.044;2023-02-20T01:56:32;99821.16;;;5.69;100.00
19797;BME280;10058;57.654;12.044;2023-02-20T01:58:57;99805.31;;;5.66;100.00
19797;BME280;10058;57.654;12.044;2023-02-20T02:01:23;99807.00;;;5.64;100.00
19797;BME280;10058;57.654;12.044;2023-02-20T02:03:48;99824.50;;;5.65;100.00
19797;BME280;10058;57.654;12.044;2023-02-20T02:09:31;99819.47;;;5.71;100.00
19797;BME280;10058;57.654;12.044;2023-02-20T02:11:58;99796.97;;;5.79;100.00
19797;BME280;10058;57.654;12.044;2023-02-20T02:14:24;99811.03;;;5.81;100.00
19797;BME280;10058;57.654;12.044;2023-02-20T02:16:56;99783.22;;;5.86;100.00
19797;BME280;10058;57.654;12.044;2023-02-20T02:30:33;99725.03;;;5.98;100.00
19797;BME280;10058;57.654;12.044;2023-02-20T02:33:04;99718.75;;;5.92;100.00
19797;BME280;10058;57.654;12.044;2023-02-20T02:40:27;99693.00;;;6.09;100.00
19797;BME280;10058;57.654;12.044;2023-02-20T02:43:15;99693.00;;;6.09;100.00
19797;BME280;10058;57.654;12.044;2023-02-20T02:48:46;99693.38;;;6.21;100.00
19797;BME280;10058;57.654;12.044;2023-02-20T02:51:17;99666.19;;;6.19;100.00
19797;BME280;10058;57.654;12.044;2023-02-20T02:56:33;99652.19;;;6.19;100.00
19797;BME280;10058;57.654;12.044;2023-02-20T02:58:58;99663.59;;;6.19;100.00
19797;BME280;10058;57.654;12.044;2023-02-20T03:01:23;99653.31;;;6.28;100.00
19797;BME280;10058;57.654;12.044;2023-02-20T03:03:49;99644.50;;;6.26;100.00
19797;BME280;10058;57.654;12.044;2023-02-20T03:09:20;99620.13;;;6.31;100.00
19797;BME280;10058;57.654;12.044;2023-02-20T03:11:46;99615.06;;;6.37;100.00
19797;BME280;10058;57.654;12.044;2023-02-20T03:14:14;99632.72;;;6.44;100.00
19797;BME280;10058;57.654;12.044;2023-02-20T03:19:27;99611.72;;;6.44;100.00
19797;BME280;10058;57.654;12.044;2023-02-20T03:21:54;99611.81;;;6.47;100.00
19797;BME280;10058;57.654;12.044;2023-02-20T03:27:31;99593.72;;;6.57;100.00
19797;BME280;10058;57.654;12.044;2023-02-20T03:35:52;99561.84;;;6.80;100.00
19797;BME280;10058;57.654;12.044;2023-02-20T03:38:37;99550.16;;;6.66;100.00
19797;BME280;10058;57.654;12.044;2023-02-20T03:41:22;99538.91;;;6.71;100.00
19797;BME280;10058;57.654;12.044;2023-02-20T03:44:08;99540.84;;;6.80;100.00
19797;BME280;10058;57.654;12.044;2023-02-20T03:49:38;99528.53;;;6.77;100.00
19797;BME280;10058;57.654;12.044;2023-02-20T03:52:23;99531.22;;;6.80;100.00
19797;BME280;10058;57.654;12.044;2023-02-20T03:54:49;99528.81;;;6.89;100.00
19797;BME280;10058;57.654;12.044;2023-02-20T03:57:16;99519.06;;;6.84;100.00
19797;BME280;10058;57.654;12.044;2023-02-20T03:59:44;99507.66;;;6.83;100.00
19797;BME280;10058;57.654;12.044;2023-02-20T04:02:33;99508.78;;;6.94;100.00
19797;BME280;10058;57.654;12.044;2023-02-20T04:08:10;99517.13;;;7.16;100.00
19797;BME280;10058;57.654;12.044;2023-02-20T04:10:42;99508.22;;;7.08;100.00
19797;BME280;10058;57.654;12.044;2023-02-20T04:13:08;99492.44;;;7.08;100.00
19797;BME280;10058;57.654;12.044;2023-02-20T04:15:35;99504.72;;;7.09;100.00
19797;BME280;10058;57.654;12.044;2023-02-20T04:20:28;99498.66;;;7.13;100.00
19797;BME280;10058;57.654;12.044;2023-02-20T04:22:55;99504.00;;;7.17;100.00
19797;BME280;10058;57.654;12.044;2023-02-20T04:28:24;99484.09;;;7.27;100.00
19797;BME280;10058;57.654;12.044;2023-02-20T04:30:50;99477.06;;;7.26;100.00
19797;BME280;10058;57.654;12.044;2023-02-20T04:33:15;99471.81;;;7.26;100.00
19797;BME280;10058;57.654;12.044;2023-02-20T04:35:41;99514.00;;;7.35;100.00
19797;BME280;10058;57.654;12.044;2023-02-20T04:38:06;99515.94;;;7.42;100.00
19797;BME280;10058;57.654;12.044;2023-02-20T04:40:32;99527.56;;;7.55;100.00
19797;BME280;10058;57.654;12.044;2023-02-20T04:42:57;99504.81;;;7.57;100.00
19797;BME280;10058;57.654;12.044;2023-02-20T04:48:25;99489.34;;;7.74;100.00
19797;BME280;10058;57.654;12.044;2023-02-20T04:50:50;99487.59;;;7.74;100.00
19797;BME280;10058;57.654;12.044;2023-02-20T04:53:15;99497.41;;;7.83;100.00
19797;BME280;10058;57.654;12.044;2023-02-20T04:55:40;99472.81;;;7.81;100.00
19797;BME280;10058;57.654;12.044;2023-02-20T04:58:06;99475.22;;;7.68;100.00
19797;BME280;10058;57.654;12.044;2023-02-20T05:00:31;99474.56;;;7.79;100.00
19797;BME280;10058;57.654;12.044;2023-02-20T05:02:56;99465.75;;;7.77;100.00
19797;BME280;10058;57.654;12.044;2023-02-20T05:05:22;99468.41;;;7.80;100.00
19797;BME280;10058;57.654;12.044;2023-02-20T05:07:48;99463.28;;;7.87;100.00
19797;BME280;10058;57.654;12.044;2023-02-20T05:10:18;99458.84;;;7.85;100.00
19797;BME280;10058;57.654;12.044;2023-02-20T05:12:44;99455.38;;;7.86;100.00
19797;BME280;10058;57.654;12.044;2023-02-20T05:15:09;99456.13;;;7.80;100.00
19797;BME280;10058;57.654;12.044;2023-02-20T05:17:34;99444.06;;;7.91;100.00
19797;BME280;10058;57.654;12.044;2023-02-20T05:19:59;99444.91;;;7.89;100.00
19797;BME280;10058;57.654;12.044;2023-02-20T05:22:25;99426.47;;;7.87;100.00
19797;BME280;10058;57.654;12.044;2023-02-20T05:27:52;99411.63;;;7.91;100.00
19797;BME280;10058;57.654;12.044;2023-02-20T05:30:18;99400.16;;;7.87;100.00
19797;BME280;10058;57.654;12.044;2023-02-20T05:32:43;99400.13;;;7.86;100.00
19797;BME280;10058;57.654;12.044;2023-02-20T05:35:08;99388.81;;;7.90;100.00
19797;BME280;10058;57.654;12.044;2023-02-20T05:37:33;99394.09;;;7.91;100.00
19797;BME280;10058;57.654;12.044;2023-02-20T05:39:58;99381.03;;;7.99;100.00
19797;BME280;10058;57.654;12.044;2023-02-20T05:42:23;99379.13;;;7.87;100.00
19797;BME280;10058;57.654;12.044;2023-02-20T05:47:51;99370.47;;;7.94;100.00
19797;BME280;10058;57.654;12.044;2023-02-20T05:50:16;99369.66;;;8.00;100.00
19797;BME280;10058;57.654;12.044;2023-02-20T05:52:41;99364.34;;;7.97;100.00
19797;BME280;10058;57.654;12.044;2023-02-20T05:55:07;99365.22;;;7.94;100.00
19797;BME280;10058;57.654;12.044;2023-02-20T05:57:32;99373.13;;;7.96;100.00
19797;BME280;10058;57.654;12.044;2023-02-20T05:59:57;99364.22;;;7.88;100.00
19797;BME280;10058;57.654;12.044;2023-02-20T06:02:23;99374.00;;;7.98;100.00
19797;BME280;10058;57.654;12.044;2023-02-20T06:07:51;99385.59;;;8.09;100.00
19797;BME280;10058;57.654;12.044;2023-02-20T06:10:17;99383.84;;;8.08;100.00
19797;BME280;10058;57.654;12.044;2023-02-20T06:12:42;99367.94;;;8.02;100.00
19797;BME280;10058;57.654;12.044;2023-02-20T06:15:07;99362.78;;;8.08;100.00
19797;BME280;10058;57.654;12.044;2023-02-20T06:17:33;99352.31;;;8.14;100.00
19797;BME280;10058;57.654;12.044;2023-02-20T06:19:58;99347.94;;;8.15;100.00
19797;BME280;10058;57.654;12.044;2023-02-20T06:22:23;99311.03;;;8.09;100.00
19797;BME280;10058;57.654;12.044;2023-02-20T06:27:51;99338.41;;;8.21;100.00
19797;BME280;10058;57.654;12.044;2023-02-20T06:30:17;99347.25;;;8.26;100.00
19797;BME280;10058;57.654;12.044;2023-02-20T06:32:42;99342.00;;;8.26;100.00
19797;BME280;10058;57.654;12.044;2023-02-20T06:35:07;99352.41;;;8.20;100.00
19797;BME280;10058;57.654;12.044;2023-02-20T06:37:32;99340.41;;;8.37;100.00
19797;BME280;10058;57.654;12.044;2023-02-20T06:39:57;99333.34;;;8.33;100.00
19797;BME280;10058;57.654;12.044;2023-02-20T06:42:23;99329.94;;;8.41;100.00
19797;BME280;10058;57.654;12.044;2023-02-20T06:47:50;99312.41;;;8.43;100.00
19797;BME280;10058;57.654;12.044;2023-02-20T06:50:16;99303.59;;;8.41;100.00
19797;BME280;10058;57.654;12.044;2023-02-20T06:52:41;99308.78;;;8.34;100.00
19797;BME280;10058;57.654;12.044;2023-02-20T06:55:06;99289.66;;;8.48;100.00
19797;BME280;10058;57.654;12.044;2023-02-20T06:57:31;99292.31;;;8.52;100.00
19797;BME280;10058;57.654;12.044;2023-02-20T06:59:57;99287.84;;;8.44;100.00
19797;BME280;10058;57.654;12.044;2023-02-20T07:02:22;99267.69;;;8.46;100.00
19797;BME280;10058;57.654;12.044;2023-02-20T07:07:50;99245.78;;;8.47;100.00
19797;BME280;10058;57.654;12.044;2023-02-20T07:10:15;99230.88;;;8.50;100.00
19797;BME280;10058;57.654;12.044;2023-02-20T07:12:40;99215.25;;;8.64;100.00
19797;BME280;10058;57.654;12.044;2023-02-20T07:15:06;99216.09;;;8.63;100.00
19797;BME280;10058;57.654;12.044;2023-02-20T07:17:31;99205.59;;;8.67;100.00
19797;BME280;10058;57.654;12.044;2023-02-20T07:19:57;99203.84;;;8.65;100.00
19797;BME280;10058;57.654;12.044;2023-02-20T07:22:23;99200.31;;;8.66;100.00
19797;BME280;10058;57.654;12.044;2023-02-20T07:24:49;99190.72;;;8.71;100.00
19797;BME280;10058;57.654;12.044;2023-02-20T07:30:17;99188.06;;;8.71;100.00
19797;BME280;10058;57.654;12.044;2023-02-20T07:32:42;99169.63;;;8.71;100.00
19797;BME280;10058;57.654;12.044;2023-02-20T07:35:08;99195.16;;;8.75;100.00
19797;BME280;10058;57.654;12.044;2023-02-20T07:37:33;99175.84;;;8.76;100.00
19797;BME280;10058;57.654;12.044;2023-02-20T07:39:58;99154.78;;;8.76;100.00
19797;BME280;10058;57.654;12.044;2023-02-20T07:42:23;99143.50;;;8.92;100.00
19797;BME280;10058;57.654;12.044;2023-02-20T07:47:51;99121.47;;;8.86;100.00
19797;BME280;10058;57.654;12.044;2023-02-20T07:50:16;99117.19;;;8.97;100.00
19797;BME280;10058;57.654;12.044;2023-02-20T07:52:42;99109.25;;;8.95;100.00
19797;BME280;10058;57.654;12.044;2023-02-20T07:55:07;99084.69;;;8.96;100.00
19797;BME280;10058;57.654;12.044;2023-02-20T07:57:33;99088.25;;;9.06;100.00
19797;BME280;10058;57.654;12.044;2023-02-20T07:59:59;99096.97;;;9.00;100.00
19797;BME280;10058;57.654;12.044;2023-02-20T08:02:24;99100.47;;;8.93;100.00
19797;BME280;10058;57.654;12.044;2023-02-20T08:07:52;99082.19;;;9.18;100.00
19797;BME280;10058;57.654;12.044;2023-02-20T08:10:19;99084.72;;;9.05;100.00
19797;BME280;10058;57.654;12.044;2023-02-20T08:12:45;99092.69;;;9.10;100.00
19797;BME280;10058;57.654;12.044;2023-02-20T08:15:10;99072.41;;;8.98;100.00
19797;BME280;10058;57.654;12.044;2023-02-20T08:17:36;99091.84;;;9.19;100.00
19797;BME280;10058;57.654;12.044;2023-02-20T08:20:02;99075.94;;;9.03;100.00
19797;BME280;10058;57.654;12.044;2023-02-20T08:22:27;99049.66;;;9.16;100.00
19797;BME280;10058;57.654;12.044;2023-02-20T08:27:55;99019.72;;;9.06;100.00
19797;BME280;10058;57.654;12.044;2023-02-20T08:30:22;99039.09;;;9.11;100.00
19797;BME280;10058;57.654;12.044;2023-02-20T08:32:52;99038.25;;;9.17;100.00
19797;BME280;10058;57.654;12.044;2023-02-20T08:35:17;99034.72;;;9.19;100.00
19797;BME280;10058;57.654;12.044;2023-02-20T08:37:43;99007.47;;;9.10;100.00
19797;BME280;10058;57.654;12.044;2023-02-20T08:40:08;98992.59;;;9.27;100.00
19797;BME280;10058;57.654;12.044;2023-02-20T08:42:33;98998.78;;;9.29;100.00
19797;BME280;10058;57.654;12.044;2023-02-20T08:48:01;98991.72;;;9.25;100.00
19797;BME280;10058;57.654;12.044;2023-02-20T08:50:27;98983.00;;;9.42;100.00
19797;BME280;10058;57.654;12.044;2023-02-20T08:52:52;98988.22;;;9.29;100.00
19797;BME280;10058;57.654;12.044;2023-02-20T08:55:17;98978.56;;;9.37;100.00
19797;BME280;10058;57.654;12.044;2023-02-20T08:57:42;98961.91;;;9.35;100.00
19797;BME280;10058;57.654;12.044;2023-02-20T09:00:08;98958.38;;;9.33;100.00
19797;BME280;10058;57.654;12.044;2023-02-20T09:02:34;98951.34;;;9.41;100.00
19797;BME280;10058;57.654;12.044;2023-02-20T09:08:02;98937.28;;;9.39;100.00
19797;BME280;10058;57.654;12.044;2023-02-20T09:10:27;98909.03;;;9.01;100.00
19797;BME280;10058;57.654;12.044;2023-02-20T09:12:52;98931.06;;;9.22;100.00
19797;BME280;10058;57.654;12.044;2023-02-20T09:15:17;98926.72;;;9.30;100.00
19797;BME280;10058;57.654;12.044;2023-02-20T09:17:43;98924.09;;;9.30;100.00
19797;BME280;10058;57.654;12.044;2023-02-20T09:20:09;98909.97;;;9.22;100.00
19797;BME280;10058;57.654;12.044;2023-02-20T09:22:35;98901.22;;;9.27;100.00
19797;BME280;10058;57.654;12.044;2023-02-20T09:28:03;98816.88;;;9.27;100.00
19797;BME280;10058;57.654;12.044;2023-02-20T09:30:28;98820.38;;;9.17;100.00
19797;BME280;10058;57.654;12.044;2023-02-20T09:32:53;98805.47;;;9.18;100.00
19797;BME280;10058;57.654;12.044;2023-02-20T09:35:20;98791.41;;;9.26;100.00
19797;BME280;10058;57.654;12.044;2023-02-20T09:37:46;98803.72;;;9.35;100.00
19797;BME280;10058;57.654;12.044;2023-02-20T09:40:12;98787.88;;;9.29;100.00
19797;BME280;10058;57.654;12.044;2023-02-20T09:42:57;98803.69;;;9.39;100.00
19797;BME280;10058;57.654;12.044;2023-02-20T09:48:44;98807.22;;;9.46;100.00
19797;BME280;10058;57.654;12.044;2023-02-20T09:51:16;98812.47;;;9.25;100.00
19797;BME280;10058;57.654;12.044;2023-02-20T09:56:13;98812.50;;;9.40;100.00
19797;BME280;10058;57.654;12.044;2023-02-20T09:58:40;98804.56;;;9.54;100.00
19797;BME280;10058;57.654;12.044;2023-02-20T10:01:07;98808.13;;;9.34;100.00
19797;BME280;10058;57.654;12.044;2023-02-20T10:04:06;98793.19;;;9.35;100.00
19797;BME280;10058;57.654;12.044;2023-02-20T10:09:27;98801.94;;;9.43;100.00
19797;BME280;10058;57.654;12.044;2023-02-20T10:11:57;98822.16;;;9.38;100.00
19797;BME280;10058;57.654;12.044;2023-02-20T10:19:40;98807.22;;;9.43;100.00
19797;BME280;10058;57.654;12.044;2023-02-20T10:22:12;98821.28;;;9.53;100.00
19797;BME280;10058;57.654;12.044;2023-02-20T10:27:53;98814.25;;;9.32;100.00
19797;BME280;10058;57.654;12.044;2023-02-20T10:30:26;98820.41;;;9.34;100.00
19797;BME280;10058;57.654;12.044;2023-02-20T10:32:58;98832.69;;;9.26;100.00
19797;BME280;10058;57.654;12.044;2023-02-20T10:35:47;98812.47;;;9.22;100.00
19797;BME280;10058;57.654;12.044;2023-02-20T10:38:11;98813.38;;;9.47;100.00
19797;BME280;10058;57.654;12.044;2023-02-20T10:40:41;98806.34;;;9.42;100.00
19797;BME280;10058;57.654;12.044;2023-02-20T10:43:18;98813.34;;;9.27;100.00
19797;BME280;10058;57.654;12.044;2023-02-20T10:48:47;98821.25;;;9.22;100.00
19797;BME280;10058;57.654;12.044;2023-02-20T10:56:35;98824.81;;;9.59;100.00
19797;BME280;10058;57.654;12.044;2023-02-20T11:01:26;98824.78;;;9.26;100.00
19797;BME280;10058;57.654;12.044;2023-02-20T11:09:38;98855.53;;;9.27;100.00
19797;BME280;10058;57.654;12.044;2023-02-20T11:12:04;98835.34;;;9.35;100.00
19797;BME280;10058;57.654;12.044;2023-02-20T11:16:58;98872.28;;;9.56;100.00
19797;BME280;10058;57.654;12.044;2023-02-20T11:19:43;98846.75;;;9.29;100.00
19797;BME280;10058;57.654;12.044;2023-02-20T11:22:09;98859.94;;;9.37;100.00
19797;BME280;10058;57.654;12.044;2023-02-20T11:27:37;98864.34;;;9.32;100.00
19797;BME280;10058;57.654;12.044;2023-02-20T11:30:11;98868.75;;;9.53;100.00
19797;BME280;10058;57.654;12.044;2023-02-20T11:32:44;98858.19;;;9.28;100.00
19797;BME280;10058;57.654;12.044;2023-02-20T11:37:43;98858.16;;;9.18;100.00
19797;BME280;10058;57.654;12.044;2023-02-20T11:40:13;98849.44;;;9.49;100.00
19797;BME280;10058;57.654;12.044;2023-02-20T11:42:39;98847.66;;;9.42;100.00
19797;BME280;10058;57.654;12.044;2023-02-20T11:48:10;98841.50;;;9.41;100.00
19797;BME280;10058;57.654;12.044;2023-02-20T11:50:40;98814.22;;;9.23;100.00
19797;BME280;10058;57.654;12.044;2023-02-20T11:53:05;98779.94;;;9.18;100.00
19797;BME280;10058;57.654;12.044;2023-02-20T11:55:32;98756.25;;;9.32;100.00
19797;BME280;10058;57.654;12.044;2023-02-20T11:57:57;98796.69;;;9.34;100.00
19797;BME280;10058;57.654;12.044;2023-02-20T12:00:24;98774.59;;;8.83;100.00
19797;BME280;10058;57.654;12.044;2023-02-20T12:02:50;98819.53;;;9.35;100.00
19797;BME280;10058;57.654;12.044;2023-02-20T12:09:04;98832.69;;;9.24;100.00
19797;BME280;10058;57.654;12.044;2023-02-20T12:11:08;98863.38;;;8.99;100.00
19797;BME280;10058;57.654;12.044;2023-02-20T12:36:03;98884.47;;;8.99;100.00
19797;BME280;10058;57.654;12.044;2023-02-20T12:43:54;98866.00;;;8.96;100.00
19797;BME280;10058;57.654;12.044;2023-02-20T12:51:55;98890.63;;;9.11;100.00
19797;BME280;10058;57.654;12.044;2023-02-20T13:00:03;98889.78;;;9.24;100.00
19797;BME280;10058;57.654;12.044;2023-02-20T13:02:35;98858.94;;;8.82;100.00
19797;BME280;10058;57.654;12.044;2023-02-20T13:08:08;98904.59;;;8.88;100.00
19797;BME280;10058;57.654;12.044;2023-02-20T13:10:41;98931.00;;;9.02;100.00
19797;BME280;10058;57.654;12.044;2023-02-20T13:13:09;98937.16;;;9.05;100.00
19797;BME280;10058;57.654;12.044;2023-02-20T13:15:49;98921.41;;;9.15;100.00
19797;BME280;10058;57.654;12.044;2023-02-20T13:21:18;98924.91;;;9.14;100.00
19797;BME280;10058;57.654;12.044;2023-02-20T13:23:46;98927.47;;;8.94;100.00
19797;BME280;10058;57.654;12.044;2023-02-20T13:29:17;98917.81;;;9.03;100.00
19797;BME280;10058;57.654;12.044;2023-02-20T13:31:47;98917.91;;;9.28;100.00
19797;BME280;10058;57.654;12.044;2023-02-20T13:36:42;98922.22;;;9.03;100.00
19797;BME280;10058;57.654;12.044;2023-02-20T13:49:53;98907.28;;;8.97;100.00
19797;BME280;10058;57.654;12.044;2023-02-20T13:57:33;98923.03;;;8.82;100.00
19797;BME280;10058;57.654;12.044;2023-02-20T14:00:13;98904.69;;;9.10;100.00
19797;BME280;10058;57.654;12.044;2023-02-20T14:02:44;98906.31;;;8.79;100.00
19797;BME280;10058;57.654;12.044;2023-02-20T14:08:16;98906.34;;;8.89;100.00
19797;BME280;10058;57.654;12.044;2023-02-20T14:10:41;98908.97;;;8.80;100.00
19797;BME280;10058;57.654;12.044;2023-02-20T14:13:12;98927.50;;;8.98;100.00
19797;BME280;10058;57.654;12.044;2023-02-20T14:15:51;98919.41;;;8.69;100.00
19797;BME280;10058;57.654;12.044;2023-02-20T14:18:24;98935.16;;;8.56;100.00
19797;BME280;10058;57.654;12.044;2023-02-20T14:20:52;98949.25;;;8.64;100.00
19797;BME280;10058;57.654;12.044;2023-02-20T14:23:23;98959.66;;;8.43;100.00
19797;BME280;10058;57.654;12.044;2023-02-20T14:25:59;98958.00;;;8.58;100.00
19797;BME280;10058;57.654;12.044;2023-02-20T14:33:56;98963.25;;;8.57;100.00
19797;BME280;10058;57.654;12.044;2023-02-20T14:39:07;98973.69;;;8.45;100.00
19797;BME280;10058;57.654;12.044;2023-02-20T14:41:36;98975.31;;;8.30;100.00
19797;BME280;10058;57.654;12.044;2023-02-20T14:44:03;98984.19;;;8.42;100.00
19797;BME280;10058;57.654;12.044;2023-02-20T14:49:32;99013.09;;;8.35;100.00
19797;BME280;10058;57.654;12.044;2023-02-20T14:52:12;99006.94;;;8.33;100.00
19797;BME280;10058;57.654;12.044;2023-02-20T14:54:38;98999.94;;;8.35;100.00
19797;BME280;10058;57.654;12.044;2023-02-20T14:57:04;99007.78;;;8.29;100.00
19797;BME280;10058;57.654;12.044;2023-02-20T14:59:30;98978.56;;;8.02;100.00
19797;BME280;10058;57.654;12.044;2023-02-20T15:02:10;99010.41;;;8.29;100.00
19797;BME280;10058;57.654;12.044;2023-02-20T15:08:01;99019.22;;;8.34;100.00
19797;BME280;10058;57.654;12.044;2023-02-20T15:10:36;99012.06;;;8.20;100.00
19797;BME280;10058;57.654;12.044;2023-02-20T15:16:27;98996.34;;;8.27;100.00
19797;BME280;10058;57.654;12.044;2023-02-20T15:18:53;99008.53;;;8.19;100.00
19797;BME280;10058;57.654;12.044;2023-02-20T15:21:40;99017.34;;;8.21;100.00
19797;BME280;10058;57.654;12.044;2023-02-20T15:30:14;99035.78;;;8.24;100.00
19797;BME280;10058;57.654;12.044;2023-02-20T15:32:41;99019.13;;;8.25;100.00
19797;BME280;10058;57.654;12.044;2023-02-20T15:35:19;99034.81;;;8.16;100.00
19797;BME280;10058;57.654;12.044;2023-02-20T15:37:45;99033.97;;;8.17;100.00
19797;BME280;10058;57.654;12.044;2023-02-20T15:42:45;99026.16;;;8.26;100.00
19797;BME280;10058;57.654;12.044;2023-02-20T15:48:45;99050.50;;;8.04;100.00
19797;BME280;10058;57.654;12.044;2023-02-20T15:51:19;99040.09;;;8.16;100.00
19797;BME280;10058;57.654;12.044;2023-02-20T15:53:45;98959.78;;;7.64;100.00
19797;BME280;10058;57.654;12.044;2023-02-20T15:56:12;99010.34;;;8.23;100.00
19797;BME280;10058;57.654;12.044;2023-02-20T15:58:38;99003.22;;;8.10;100.00
19797;BME280;10058;57.654;12.044;2023-02-20T16:04:28;99009.31;;;8.08;100.00
19797;BME280;10058;57.654;12.044;2023-02-20T16:10:17;99022.28;;;7.88;100.00
19797;BME280;10058;57.654;12.044;2023-02-20T16:12:43;99019.41;;;7.65;100.00
19797;BME280;10058;57.654;12.044;2023-02-20T16:15:15;99023.09;;;7.79;100.00
19797;BME280;10058;57.654;12.044;2023-02-20T16:17:42;99014.84;;;7.50;100.00
19797;BME280;10058;57.654;12.044;2023-02-20T16:20:15;99018.66;;;7.77;100.00
19797;BME280;10058;57.654;12.044;2023-02-20T16:22:41;99029.81;;;7.56;100.00
19797;BME280;10058;57.654;12.044;2023-02-20T16:28:27;99016.75;;;7.60;100.00
19797;BME280;10058;57.654;12.044;2023-02-20T16:30:53;99032.53;;;7.63;100.00
19797;BME280;10058;57.654;12.044;2023-02-20T16:33:21;99019.22;;;7.48;100.00
19797;BME280;10058;57.654;12.044;2023-02-20T16:35:49;99029.00;;;7.60;100.00
19797;BME280;10058;57.654;12.044;2023-02-20T16:38:15;99028.19;;;7.67;100.00
19797;BME280;10058;57.654;12.044;2023-02-20T16:40:40;99022.88;;;7.64;100.00
19797;BME280;10058;57.654;12.044;2023-02-20T16:43:07;99035.25;;;7.71;100.00
19797;BME280;10058;57.654;12.044;2023-02-20T16:48:54;99042.16;;;7.63;100.00
19797;BME280;10058;57.654;12.044;2023-02-20T16:51:19;99049.22;;;7.67;100.00
19797;BME280;10058;57.654;12.044;2023-02-20T16:53:46;99046.47;;;7.56;100.00
19797;BME280;10058;57.654;12.044;2023-02-20T16:56:11;99037.69;;;7.54;100.00
19797;BME280;10058;57.654;12.044;2023-02-20T16:58:37;99044.84;;;7.67;100.00
19797;BME280;10058;57.654;12.044;2023-02-20T17:01:02;99029.94;;;7.68;100.00
19797;BME280;10058;57.654;12.044;2023-02-20T17:03:27;99031.69;;;7.67;100.00
19797;BME280;10058;57.654;12.044;2023-02-20T17:09:14;98995.78;;;7.68;100.00
19797;BME280;10058;57.654;12.044;2023-02-20T17:11:40;98990.53;;;7.69;100.00
19797;BME280;10058;57.654;12.044;2023-02-20T17:14:05;99025.44;;;7.55;100.00
19797;BME280;10058;57.654;12.044;2023-02-20T17:16:30;99027.25;;;7.62;100.00
19797;BME280;10058;57.654;12.044;2023-02-20T17:18:55;99043.03;;;7.63;100.00
19797;BME280;10058;57.654;12.044;2023-02-20T17:21:21;99044.78;;;7.60;100.00
19797;BME280;10058;57.654;12.044;2023-02-20T17:23:46;99035.75;;;7.38;100.00
19797;BME280;10058;57.654;12.044;2023-02-20T17:29:33;99048.97;;;7.46;100.00
19797;BME280;10058;57.654;12.044;2023-02-20T17:31:58;99058.44;;;7.33;100.00